Absecon, NJ

5:19 AM EST on December 06, 2016 (GMT -0500)
Tom's Smithville WX | | Change Station

Elev 12 ft 39.49 °N, 74.47 °W | Updated 37 seconds ago

Clear
Clear
34.7 °F
Feels Like 30 °F
N
5.3
Wind Variable Wind from NNE

Today
High -- | Low -- °F
--% Chance of Precip.
Yesterday
High -- | Low -- °F
Precip. -- in
Pressure 30.12 in
Visibility 10.0 miles
Clouds Clear
Windchill 30 °F
Dew Point 32 °F
Humidity 91%
Rainfall 0.00 in
Snow Depth Not available.
7:04 AM 4:34 PM
Waxing Crescent, 40% visible
METAR KACY 060954Z 01007KT 10SM CLR 02/M01 A3012 RMK AO2 SLP198 T00171011
Pressure 30.12 in
Visibility 10.0 miles
Clouds Clear
Windchill 30 °F
Dew Point 32 °F
Humidity 91%
Rainfall 0.00 in
Snow Depth Not available.
7:04 AM 4:34 PM
Waxing Crescent, 40% visible
METAR KACY 060954Z 01007KT 10SM CLR 02/M01 A3012 RMK AO2 SLP198 T00171011

10-Day Weather Forecast

Almanac

Astronomy

Dec. 06, 2016 Rise Set
Actual Time
Civil Twilight
Nautical Twilight
Astronomical Twilight
Moon
Length of Visible Light
Length of Day
Tomorrow will be .
, % of the Moon is Illuminated

Today's Extremes

State Highs State Lows

Community

WunderPhotos

Upload Photos

1,955,935 photos uploaded!

WunderBlog® & News

Nearby

Air Quality

  Air Quality AQ Index Pollutant
Not available.

Snow Depth

Station Depth Elevation

Earthquake Activity

City Distance Mag. Time & Date
Minimum magnitude displayed is 2.5.

Coastal Water Temperatures

Place Temperature

Stations

Nearby Weather Stations

Station Location Temp. Windchill Dew Point Humidity Wind Precip. Elev Updated Type
                   

Watches & Warnings

There are currently no watches in effect.